KR-0423 weather

Sejong Grandia Apartments Heliports
Busan (Munhyeon-dong), Busan Gwang'yeogsi, South Korea

Public forecast

Using degrees Celsius for public forecast. Weather courtesy of forecast.io.

Closest aviation weather report (METAR) to Sejong Grandia Apartments Heliports

Closest report is Gimhae International Airport, 6.9 nm (12.8 km) WNW. Retrieved 2020/08/06 18:00 UTC (53 minutes ago):

RKPK 061800Z 16002KT 8000 FEW010 BKN015 OVC030 26/24 Q1008

Closest aviation forecast (TAF) to Sejong Grandia Apartments Heliports

Closest forecast is Gimhae International Airport, 6.9 nm (12.8 km) WNW. Retrieved 2020/08/06 18:00 UTC (53 minutes ago):

TAF RKPK 061700Z 0618/0724 21006KT 8000 BKN015 BKN030 TN24/0621Z TX27/0706Z BECMG 0621/0622 21010KT 4800 -RA BR